Seward, Nebraska
Current Conditions -  °F | °C
As of 3:54 AM on Wednesday 26 Nov 2014 (Local Time) from KLNK Reporting Station
Broken Clouds Broken Clouds  
Wind Chill: 29°   Ceiling: 7500
Heat Index: 37°   Visibility: 10mi
Dew Point: 30°   Wind: 13mph
Humidity: 76%   Direction: 290°WNW
Pressure: 29.9"   Gusts: NA
Location:  40.91°N, 97.1°W
Report Text: KLNK 260954Z 29011KT 10SM BKN075 03/M01 A2990 RMK AO2 SLP132 T00281011
Loading
Personal Weather Stations






























Interactive Weather Map New forecast layout! Learn more

10-Day Weather Forecast

Advertisements
Track Severe Weather on mobile